METAR Data
IDs: Format: Raw Decoded Include TAF

Data at: 2025 UTC 26 Sep 2021

SAME 262000Z 07006KT CAVOK 19/02 Q1016